Temp: 17.3°C   Baro: 1010.5mb
  Wind: 9.0mph   Dir: NNW (329°)
  Rain: 0.8mm (0.0mm/hr)
  Solar: 93W/m2  Hum: 91%
 
Bath Spa Weather Station Historical Data
Daily Summary for November 13, 2019 Units:  Metric    English   Both
Daily Weekly Monthly Yearly Custom
  High: Low: Average:
Temperature: 8.8 °C 4 °C 6.1 °C
Dew Point: 5.5 °C 2.7 °C 3.9 °C
Humidity: 92% 75% 86%
Wind Speed: 18.2km/h 0km/h 5.1km/h
Wind Gust: 33.8km/h - -
Wind- - SW
Pressure: 1002.6 hPa 987.7 hPa -
Precipitation: 6.1 mm    
Historical Graphs
 
 
Tabular Data for November 13, 2019
Time Temperature Dew Point Pressure Wind Wind Speed Wind Gust Humidity Rainfall Rate (Hourly) solar
00:04 6.2 °C 4.5 °C 1002.6 hPa WNW 6.8 km/h 12.9 km/h 89% 0 mm 0 W/m2
00:09 6.1 °C 4.4 °C 1002.6 hPa WNW 6.9 km/h 11.3 km/h 89% 0 mm 0 W/m2
00:14 6.1 °C 4.3 °C 1002.6 hPa WNW 5.6 km/h 11.3 km/h 89% 0 mm 0 W/m2
00:19 5.9 °C 4.2 °C 1002.6 hPa WNW 6.8 km/h 11.3 km/h 89% 0 mm 0 W/m2
00:24 5.8 °C 4.2 °C 1002.6 hPa WNW 7.1 km/h 14.5 km/h 89% 0 mm 0 W/m2
00:29 5.8 °C 4.1 °C 1002.6 hPa WNW 7.2 km/h 12.9 km/h 89% 0 mm 0 W/m2
00:34 5.8 °C 4.1 °C 1002.6 hPa WNW 6.6 km/h 16.1 km/h 89% 0 mm 0 W/m2
00:39 5.9 °C 4.2 °C 1002.6 hPa WNW 6.3 km/h 11.3 km/h 89% 0 mm 0 W/m2
00:44 5.9 °C 4.4 °C 1002.6 hPa WNW 6.6 km/h 11.3 km/h 89.9% 0 mm 0 W/m2
00:49 6 °C 4.5 °C 1002.6 hPa WNW 5.6 km/h 9.7 km/h 90% 0 mm 0 W/m2
00:54 6.1 °C 4.5 °C 1002.3 hPa WNW 6 km/h 11.3 km/h 89.6% 0 mm 0 W/m2
00:59 6.1 °C 4.3 °C 1002.6 hPa WNW 6 km/h 11.3 km/h 89% 0 mm 0 W/m2
01:04 5.8 °C 4.2 °C 1002.6 hPa WNW 5.6 km/h 9.7 km/h 89% 0 mm 0 W/m2
01:09 5.7 °C 4 °C 1002.6 hPa WNW 7.1 km/h 11.3 km/h 89% 0 mm 0 W/m2
01:14 5.6 °C 3.9 °C 1002.6 hPa West 6.6 km/h 11.3 km/h 89% 0 mm 0 W/m2
01:19 5.5 °C 3.9 °C 1002.6 hPa WNW 4.5 km/h 9.7 km/h 89.5% 0 mm 0 W/m2
01:24 5.4 °C 3.7 °C 1002.6 hPa WNW 5.1 km/h 9.7 km/h 89% 0 mm 0 W/m2
01:29 5.3 °C 3.8 °C 1002.6 hPa WNW 5 km/h 9.7 km/h 90% 0 mm 0 W/m2
01:34 5.4 °C 3.9 °C 1002.6 hPa WNW 5.5 km/h 9.7 km/h 90% 0 mm 0 W/m2
01:39 5.6 °C 4.1 °C 1002.6 hPa WNW 3.9 km/h 9.7 km/h 90% 0 mm 0 W/m2
01:44 5.5 °C 4 °C 1002.6 hPa WNW 4.2 km/h 8 km/h 90% 0 mm 0 W/m2
01:49 5.3 °C 3.8 °C 1002.6 hPa WNW 5.6 km/h 11.3 km/h 90% 0 mm 0 W/m2
01:54 5.2 °C 3.7 °C 1002.6 hPa WNW 7.6 km/h 12.9 km/h 90% 0 mm 0 W/m2
01:59 5.3 °C 3.8 °C 1002.6 hPa WNW 6.4 km/h 12.9 km/h 90% 0 mm 0 W/m2
02:04 5.3 °C 3.8 °C 1002.6 hPa WNW 7.1 km/h 12.9 km/h 90% 0 mm 0 W/m2
02:09 5.4 °C 3.9 °C 1002.6 hPa WNW 5.3 km/h 12.9 km/h 90% 0 mm 0 W/m2
02:14 5.6 °C 4.1 °C 1002.3 hPa WNW 5.8 km/h 12.9 km/h 90% 0 mm 0 W/m2
02:19 5.6 °C 4.1 °C 1002.3 hPa WNW 5.8 km/h 12.9 km/h 90% 0 mm 0 W/m2
02:24 5.6 °C 4.1 °C 1002.3 hPa WNW 2.9 km/h 8 km/h 90% 0 mm 0 W/m2
02:29 5.3 °C 3.8 °C 1002.6 hPa WNW 3.5 km/h 6.4 km/h 90% 0 mm 0 W/m2
02:34 5.2 °C 3.7 °C 1002.3 hPa WNW 3.2 km/h 6.4 km/h 90% 0 mm 0 W/m2
02:39 5.2 °C 3.7 °C 1002.3 hPa WNW 3.7 km/h 9.7 km/h 90% 0 mm 0 W/m2
02:44 5.3 °C 3.8 °C 1002.3 hPa WNW 3.7 km/h 9.7 km/h 90% 0 mm 0 W/m2
02:49 5.3 °C 3.8 °C 1002.3 hPa WNW 3.2 km/h 9.7 km/h 90% 0 mm 0 W/m2
02:54 5.2 °C 3.7 °C 1002.3 hPa WNW 2.1 km/h 6.4 km/h 90% 0 mm 0 W/m2
02:59 5.1 °C 3.6 °C 1002.3 hPa WNW 3.2 km/h 8 km/h 90% 0 mm 0 W/m2
03:04 4.8 °C 3.3 °C 1002.3 hPa WNW 4.3 km/h 8 km/h 90% 0 mm 0 W/m2
03:09 4.8 °C 3.3 °C 1002.3 hPa WNW 4 km/h 6.4 km/h 90% 0 mm 0 W/m2
03:14 4.9 °C 3.4 °C 1002.3 hPa WNW 4.7 km/h 8 km/h 90% 0 mm 0 W/m2
03:19 4.9 °C 3.4 °C 1002.3 hPa WNW 3.5 km/h 8 km/h 90% 0 mm 0 W/m2
03:24 4.9 °C 3.6 °C 1002.3 hPa WNW 1.8 km/h 4.8 km/h 90.5% 0 mm 0 W/m2
03:29 5.1 °C 3.8 °C 1002.3 hPa WNW 0.3 km/h 4.8 km/h 91% 0 mm 0 W/m2
03:34 5.1 °C 3.7 °C 1002.3 hPa Calm   3.2 km/h 91% 0 mm 0 W/m2
03:39 4.9 °C 3.4 °C 1002.3 hPa Calm     90.3% 0 mm 0 W/m2
03:44 4.7 °C 3.2 °C 1002.3 hPa Calm   1.6 km/h 90% 0 mm 0 W/m2
03:49 4.4 °C 2.9 °C 1002.3 hPa WNW 0.2 km/h 1.6 km/h 90% 0 mm 0 W/m2
03:54 4.3 °C 2.9 °C 1002.3 hPa WNW 0.5 km/h 3.2 km/h 90.4% 0 mm 0 W/m2
03:59 4.3 °C 3.1 °C 1002.3 hPa WNW 1.4 km/h 4.8 km/h 91% 0 mm 0 W/m2
04:04 4.3 °C 3 °C 1002.3 hPa WNW 1.4 km/h 4.8 km/h 91% 0 mm 0 W/m2
04:09 4.3 °C 3 °C 1002.3 hPa WNW 3.9 km/h 8 km/h 91% 0 mm 0 W/m2
04:14 4.5 °C 3.2 °C 1002.3 hPa WNW 4.5 km/h 8 km/h 91% 0 mm 0 W/m2
04:19 4.7 °C 3.3 °C 1002.3 hPa WNW 4.7 km/h 9.7 km/h 91% 0 mm 0 W/m2
04:24 4.7 °C 3.4 °C 1002.6 hPa WNW 3.9 km/h 9.7 km/h 91% 0 mm 0 W/m2
04:29 4.7 °C 3.4 °C 1002.6 hPa WNW 3.5 km/h 8 km/h 91% 0 mm 0 W/m2
04:34 4.8 °C 3.5 °C 1002.6 hPa WNW 5 km/h 9.7 km/h 91% 0 mm 0 W/m2
04:39 4.8 °C 3.5 °C 1002.6 hPa WNW 5.8 km/h 12.9 km/h 91% 0 mm 0 W/m2
04:44 4.9 °C 3.7 °C 1002.6 hPa WNW 6.4 km/h 14.5 km/h 91% 0 mm 0 W/m2
04:49 5.1 °C 3.8 °C 1002.6 hPa NW 6.9 km/h 12.9 km/h 91% 0 mm 0 W/m2
04:54 5.1 °C 3.8 °C 1002.6 hPa NW 5.5 km/h 12.9 km/h 91% 0 mm 0 W/m2
04:59 5.2 °C 3.8 °C 1002.6 hPa NW 6.3 km/h 11.3 km/h 90.6% 0 mm 0 W/m2
05:04 5.2 °C 3.7 °C 1002.6 hPa NW 5.8 km/h 11.3 km/h 90% 0 mm 0 W/m2
05:09 5.2 °C 3.7 °C 1002.6 hPa NW 6.3 km/h 12.9 km/h 90% 0 mm 0 W/m2
05:14 5.2 °C 3.7 °C 1002.3 hPa NW 5 km/h 12.9 km/h 90% 0 mm 0 W/m2
05:19 5.3 °C 3.8 °C 1002.3 hPa NW 5.1 km/h 11.3 km/h 90% 0 mm 0 W/m2
05:24 5.3 °C 3.7 °C 1002.3 hPa NW 4.2 km/h 11.3 km/h 89.2% 0 mm 0 W/m2
05:29 5.3 °C 3.6 °C 1002.3 hPa NW 3.5 km/h 8 km/h 89% 0 mm 0 W/m2
05:34 5.3 °C 3.7 °C 1002.3 hPa WNW 6.4 km/h 14.5 km/h 89% 0 mm 0 W/m2
05:39 5.4 °C 3.7 °C 1002.3 hPa WNW 5.5 km/h 14.5 km/h 89% 0 mm 0 W/m2
05:44 5.4 °C 3.7 °C 1002.3 hPa WNW 6.1 km/h 11.3 km/h 89% 0 mm 0 W/m2
05:49 5.3 °C 3.7 °C 1002.3 hPa WNW 6.3 km/h 11.3 km/h 89% 0 mm 0 W/m2
05:54 5.3 °C 3.6 °C 1002.3 hPa WNW 6.8 km/h 11.3 km/h 89% 0 mm 0 W/m2
05:59 5.3 °C 3.6 °C 1002.3 hPa WNW 6.8 km/h 11.3 km/h 89% 0 mm 0 W/m2
06:04 5.2 °C 3.5 °C 1002.3 hPa WNW 5.6 km/h 9.7 km/h 89% 0 mm 0 W/m2
06:09 5.1 °C 3.3 °C 1002.3 hPa WNW 5 km/h 9.7 km/h 89% 0 mm 0 W/m2
06:14 4.9 °C 3.2 °C 1002.3 hPa WNW 3.7 km/h 9.7 km/h 89% 0 mm 0 W/m2
06:19 4.9 °C 3.2 °C 1002.3 hPa WNW 2.3 km/h 4.8 km/h 89% 0 mm 0 W/m2
06:24 4.9 °C 3.2 °C 1002.3 hPa WNW 4.2 km/h 8 km/h 89% 0 mm 0 W/m2
06:29 4.8 °C 3.3 °C 1002.3 hPa WNW 3.9 km/h 8 km/h 89.7% 0 mm 0 W/m2
06:34 4.8 °C 3.3 °C 1002.3 hPa WNW 4.5 km/h 9.7 km/h 90% 0 mm 0 W/m2
06:39 4.8 °C 3.3 °C 1002.3 hPa WNW 3.7 km/h 6.4 km/h 90% 0 mm 0 W/m2
06:44 4.7 °C 3.2 °C 1002.3 hPa WNW 2.3 km/h 6.4 km/h 90% 0 mm 0 W/m2
06:49 4.7 °C 3.2 °C 1002.3 hPa WNW 3.2 km/h 8 km/h 90% 0 mm 0 W/m2
06:54 4.7 °C 3.2 °C 1002.3 hPa WNW 2.1 km/h 4.8 km/h 90% 0 mm 0 W/m2
06:59 4.6 °C 3.1 °C 1002.3 hPa WNW 2.6 km/h 6.4 km/h 90% 0 mm 0 W/m2
07:04 4.6 °C 3.3 °C 1002.3 hPa WNW 1.6 km/h 6.4 km/h 90.9% 0 mm 0 W/m2
07:09 4.6 °C 3.1 °C 1002.3 hPa WNW 3.2 km/h 4.8 km/h 90.4% 0 mm 0 W/m2
07:14 4.5 °C 3.2 °C 1002.3 hPa WNW 2.9 km/h 6.4 km/h 90.9% 0 mm 0 W/m2
07:19 4.5 °C 3.2 °C 1002.3 hPa WNW 2.9 km/h 6.4 km/h 91% 0 mm 0 W/m2
07:24 4.4 °C 3.1 °C 1002.3 hPa WNW 2.7 km/h 6.4 km/h 91% 0 mm 0 W/m2
07:29 4.4 °C 3.1 °C 1002.3 hPa WNW 3.5 km/h 8 km/h 91% 0 mm 5 W/m2
07:34 4.4 °C 3.1 °C 1002.3 hPa WNW 4.8 km/h 8 km/h 91% 0 mm 7 W/m2
07:39 4.5 °C 3.2 °C 1002.3 hPa WNW 4.8 km/h 9.7 km/h 91% 0 mm 9 W/m2
07:44 4.6 °C 3.3 °C 1002.3 hPa WNW 4.8 km/h 9.7 km/h 91% 0 mm 11 W/m2
07:49 4.6 °C 3.3 °C 1001.9 hPa WNW 4.5 km/h 11.3 km/h 91% 0 mm 12 W/m2
07:54 4.6 °C 3.3 °C 1001.9 hPa WNW 5 km/h 11.3 km/h 91% 0 mm 16 W/m2
07:59 4.7 °C 3.4 °C 1001.9 hPa WNW 4.7 km/h 9.7 km/h 91.2% 0 mm 18 W/m2
08:04 4.7 °C 3.4 °C 1001.9 hPa WNW 5 km/h 8 km/h 91.4% 0 mm 19 W/m2
08:09 4.8 °C 3.6 °C 1001.9 hPa WNW 5.6 km/h 11.3 km/h 92% 0 mm 23 W/m2
08:14 4.8 °C 3.7 °C 1001.9 hPa WNW 5.6 km/h 9.7 km/h 92% 0 mm 23 W/m2
08:19 4.9 °C 3.7 °C 1001.9 hPa WNW 5 km/h 11.3 km/h 92% 0 mm 25 W/m2
08:24 4.9 °C 3.8 °C 1001.9 hPa WNW 3.9 km/h 6.4 km/h 92% 0 mm 26 W/m2
08:29 5.1 °C 3.8 °C 1001.9 hPa WNW 3.1 km/h 6.4 km/h 92% 0 mm 28 W/m2
08:34 5.2 °C 3.8 °C 1001.9 hPa WNW 2.9 km/h 6.4 km/h 91% 0 mm 28 W/m2
08:39 5.3 °C 3.9 °C 1001.9 hPa WNW 2.1 km/h 6.4 km/h 91% 0 mm 30 W/m2
08:44 5.3 °C 4 °C 1001.9 hPa WNW 2.1 km/h 6.4 km/h 91% 0 mm 33 W/m2
08:49 5.4 °C 4 °C 1001.9 hPa WNW 1.8 km/h 6.4 km/h 91% 0 mm 37 W/m2
08:54 5.5 °C 4.1 °C 1001.9 hPa WNW 3.4 km/h 8 km/h 90.6% 0 mm 40 W/m2
08:59 5.6 °C 4.1 °C 1001.9 hPa WNW 1.4 km/h 6.4 km/h 90% 0 mm 47 W/m2
09:04 5.7 °C 4.2 °C 1001.9 hPa WNW 1 km/h 4.8 km/h 90% 0 mm 56 W/m2
09:09 5.8 °C 4.3 °C 1001.9 hPa WNW 1.4 km/h 4.8 km/h 90% 0 mm 65 W/m2
09:14 5.9 °C 4.3 °C 1001.9 hPa WNW 0.2 km/h 4.8 km/h 89.5% 0 mm 76 W/m2
09:19 6.3 °C 4.6 °C 1001.6 hPa WNW 0.6 km/h 3.2 km/h 89.2% 0 mm 93 W/m2
09:24 6.5 °C 4.8 °C 1001.6 hPa WNW 0.3 km/h 3.2 km/h 89% 0 mm 113 W/m2
09:29 6.7 °C 4.9 °C 1001.6 hPa Calm   1.6 km/h 88.2% 0 mm 127 W/m2
09:34 6.9 °C 5.1 °C 1001.6 hPa Calm   1.6 km/h 87.7% 0 mm 137 W/m2
09:39 7.4 °C 5.5 °C 1001.6 hPa Calm     87.5% 0 mm 148 W/m2
09:44 7.6 °C 5.4 °C 1001.2 hPa Calm     86.1% 0 mm 193 W/m2
09:49 7.7 °C 5.3 °C 1001.2 hPa Calm   1.6 km/h 85% 0 mm 169 W/m2
09:54 7.8 °C 5.3 °C 1001.2 hPa Calm   1.6 km/h 84.3% 0 mm 144 W/m2
09:59 7.7 °C 5.2 °C 1001.2 hPa Calm     83.7% 0 mm 160 W/m2
10:04 7.7 °C 4.9 °C 1001.2 hPa Calm   3.2 km/h 83% 0 mm 123 W/m2
10:09 7.7 °C 4.9 °C 1001.2 hPa WNW 0.5 km/h 4.8 km/h 83% 0 mm 121 W/m2
10:14 7.6 °C 4.9 °C 1000.9 hPa WNW 1.3 km/h 4.8 km/h 83% 0 mm 125 W/m2
10:19 7.6 °C 4.8 °C 1000.9 hPa WNW 4.3 km/h 9.7 km/h 83% 0 mm 127 W/m2
10:24 7.4 °C 4.6 °C 1000.9 hPa West 2.1 km/h 9.7 km/h 82% 0 mm 125 W/m2
10:29 7.4 °C 4.5 °C 1000.6 hPa West 2.7 km/h 8 km/h 82% 0 mm 114 W/m2
10:34 7.3 °C 4.4 °C 1000.6 hPa West 6.1 km/h 11.3 km/h 82% 0 mm 123 W/m2
10:39 7.3 °C 4.3 °C 1000.6 hPa West 4 km/h 11.3 km/h 81.4% 0 mm 139 W/m2
10:44 7.3 °C 4.3 °C 1000.6 hPa West 3.1 km/h 8 km/h 81% 0 mm 153 W/m2
10:49 7.4 °C 4.4 °C 1000.6 hPa West 3.5 km/h 9.7 km/h 81% 0 mm 165 W/m2
10:54 7.5 °C 4.5 °C 1000.2 hPa West 4.7 km/h 9.7 km/h 81% 0 mm 172 W/m2
10:59 7.6 °C 4.4 °C 1000.2 hPa WSW 7.6 km/h 14.5 km/h 80.5% 0 mm 178 W/m2
11:04 7.6 °C 4.3 °C 1000.2 hPa WSW 6.1 km/h 14.5 km/h 79.2% 0 mm 163 W/m2
11:09 7.7 °C 4.3 °C 1000.2 hPa WSW 6.1 km/h 16.1 km/h 79% 0 mm 116 W/m2
11:14 7.7 °C 4.4 °C 1000.2 hPa SW 9.2 km/h 17.7 km/h 79.6% 0 mm 107 W/m2
11:19 7.5 °C 4.4 °C 999.9 hPa WSW 5.8 km/h 14.5 km/h 80.6% 0 mm 104 W/m2
11:24 7.4 °C 4.4 °C 999.9 hPa SW 3.9 km/h 11.3 km/h 81% 0 mm 100 W/m2
11:29 7.3 °C 4.3 °C 999.9 hPa SW 8.4 km/h 16.1 km/h 81% 0 mm 100 W/m2
11:34 7.3 °C 4.4 °C 999.9 hPa SW 6 km/h 12.9 km/h 82% 0 mm 90 W/m2
11:39 7.3 °C 4.4 °C 999.5 hPa SW 1.9 km/h 8 km/h 82% 0 mm 97 W/m2
11:44 7.3 °C 4.4 °C 999.5 hPa SW 3.5 km/h 9.7 km/h 82% 0 mm 84 W/m2
11:49 7.3 °C 4.4 °C 999.5 hPa SW 3.1 km/h 8 km/h 82% 0 mm 76 W/m2
11:54 7.3 °C 4.4 °C 999.2 hPa SW 6.4 km/h 11.3 km/h 82% 0 mm 76 W/m2
11:59 7.4 °C 4.6 °C 999.2 hPa SW 4.2 km/h 9.7 km/h 82.4% 0 mm 88 W/m2
12:04 7.4 °C 4.7 °C 999.2 hPa SSW 6.6 km/h 12.9 km/h 82.8% 0 mm 105 W/m2
12:09 7.4 °C 4.5 °C 998.9 hPa SSW 8 km/h 12.9 km/h 82% 0 mm 105 W/m2
12:14 7.4 °C 4.7 °C 998.9 hPa SSW 5.1 km/h 11.3 km/h 83% 0 mm 100 W/m2
12:19 7.4 °C 4.7 °C 998.9 hPa SSW 7.4 km/h 12.9 km/h 82.7% 0 mm 102 W/m2
12:24 7.4 °C 4.6 °C 998.5 hPa SSW 5.8 km/h 14.5 km/h 82% 0 mm 139 W/m2
12:29 7.5 °C 4.6 °C 998.5 hPa SSW 5 km/h 11.3 km/h 82% 0 mm 153 W/m2
12:34 7.5 °C 4.6 °C 998.5 hPa South 6.9 km/h 11.3 km/h 82% 0 mm 162 W/m2
12:39 7.6 °C 4.6 °C 998.5 hPa South 4.7 km/h 8 km/h 81.5% 0 mm 193 W/m2
12:44 7.7 °C 4.6 °C 998.2 hPa South 4.7 km/h 11.3 km/h 81.2% 0 mm 195 W/m2
12:49 7.7 °C 4.6 °C 998.2 hPa South 2.9 km/h 11.3 km/h 81% 0 mm 183 W/m2
12:54 7.8 °C 4.7 °C 998.2 hPa South 2.9 km/h 8 km/h 80.6% 0 mm 156 W/m2
12:59 7.9 °C 4.7 °C 997.9 hPa South 2.6 km/h 9.7 km/h 80% 0 mm 141 W/m2
13:04 7.9 °C 4.8 °C 997.9 hPa SSW 3.4 km/h 9.7 km/h 80% 0 mm 123 W/m2
13:09 8 °C 4.7 °C 997.9 hPa SSW 5.1 km/h 9.7 km/h 79.8% 0 mm 125 W/m2
13:14 7.9 °C 4.6 °C 997.5 hPa SSW 5 km/h 11.3 km/h 79% 0 mm 127 W/m2
13:19 8 °C 4.5 °C 997.5 hPa SSW 6.4 km/h 12.9 km/h 78.3% 0 mm 125 W/m2
13:24 8.1 °C 4.5 °C 997.2 hPa SW 3.7 km/h 12.9 km/h 78% 0 mm 111 W/m2
13:29 8.1 °C 4.5 °C 997.2 hPa SW 3.9 km/h 9.7 km/h 78% 0 mm 104 W/m2
13:34 8.1 °C 4.5 °C 997.2 hPa SSW 5.3 km/h 12.9 km/h 78% 0 mm 113 W/m2
13:39 8.1 °C 4.5 °C 996.8 hPa SSW 3.5 km/h 8 km/h 78% 0 mm 116 W/m2
13:44 8.2 °C 4.6 °C 996.8 hPa SSW 1 km/h 6.4 km/h 78% 0 mm 116 W/m2
13:49 8.2 °C 4.6 °C 996.8 hPa SSW 7.2 km/h 12.9 km/h 78% 0 mm 104 W/m2
13:54 8.2 °C 4.6 °C 996.5 hPa SSW 4.3 km/h 11.3 km/h 77.7% 0 mm 93 W/m2
13:59 8.3 °C 4.7 °C 996.5 hPa SSW 3.9 km/h 9.7 km/h 78% 0 mm 95 W/m2
14:04 8.3 °C 4.5 °C 996.2 hPa South 6.9 km/h 12.9 km/h 77% 0 mm 95 W/m2
14:09 8.3 °C 4.5 °C 996.2 hPa SSE 6.1 km/h 12.9 km/h 77% 0 mm 102 W/m2
14:14 8.3 °C 4.5 °C 995.8 hPa SSE 6.8 km/h 14.5 km/h 77% 0 mm 167 W/m2
14:19 8.4 °C 4.6 °C 995.8 hPa SSE 7.4 km/h 12.9 km/h 77% 0 mm 234 W/m2
14:24 8.7 °C 4.7 °C 995.8 hPa SSE 6.8 km/h 14.5 km/h 76.1% 0 mm 236 W/m2
14:29 8.8 °C 4.8 °C 995.8 hPa SSE 5.8 km/h 12.9 km/h 76% 0 mm 218 W/m2
14:34 8.8 °C 4.7 °C 995.5 hPa SSE 8.9 km/h 17.7 km/h 75.4% 0 mm 186 W/m2
14:39 8.8 °C 4.6 °C 995.5 hPa SSE 10.8 km/h 17.7 km/h 75% 0 mm 139 W/m2
14:44 8.8 °C 4.6 °C 995.1 hPa South 10.8 km/h 17.7 km/h 75% 0 mm 100 W/m2
14:49 8.7 °C 4.5 °C 995.1 hPa SSE 11.9 km/h 22.5 km/h 75% 0 mm 56 W/m2
14:54 8.6 °C 4.4 °C 994.8 hPa South 7.9 km/h 20.9 km/h 75% 0 mm 47 W/m2
14:59 8.6 °C 4.4 °C 994.8 hPa SSE 8.5 km/h 14.5 km/h 75% 0 mm 54 W/m2
15:04 8.6 °C 4.4 °C 994.5 hPa SSE 7.6 km/h 14.5 km/h 75% 0 mm 54 W/m2
15:09 8.6 °C 4.3 °C 994.5 hPa SSE 6.8 km/h 14.5 km/h 75% 0 mm 46 W/m2
15:14 8.4 °C 4.3 °C 994.5 hPa SSE 11.6 km/h 20.9 km/h 75% 0 mm 44 W/m2
15:19 8.4 °C 4.2 °C 994.1 hPa SSE 8.7 km/h 16.1 km/h 75% 0 mm 42 W/m2
15:24 8.3 °C 4.3 °C 994.1 hPa SSE 13 km/h 25.7 km/h 75.7% 0 mm 40 W/m2
15:29 8.2 °C 4.2 °C 994.1 hPa SSE 11.1 km/h 25.7 km/h 76% 0 mm 39 W/m2
15:34 8.1 °C 4.3 °C 993.8 hPa South 9.8 km/h 19.3 km/h 76.8% 0 mm 37 W/m2
15:39 7.9 °C 4.2 °C 993.8 hPa South 8.7 km/h 22.5 km/h 77.2% 0 mm 33 W/m2
15:44 7.8 °C 4.2 °C 993.5 hPa SSE 12.1 km/h 22.5 km/h 78% 0 mm 26 W/m2
15:49 7.7 °C 4.2 °C 993.5 hPa SSE 8.9 km/h 20.9 km/h 78.4% 0 mm 21 W/m2
15:54 7.7 °C 4.2 °C 993.1 hPa SSE 6.8 km/h 16.1 km/h 79% 0 mm 16 W/m2
15:59 7.6 °C 4.2 °C 993.1 hPa SSE 8 km/h 16.1 km/h 79% 0 mm 12 W/m2
16:04 7.6 °C 4.2 °C 993.1 hPa SSE 9.3 km/h 19.3 km/h 79% 0 mm 12 W/m2
16:09 7.4 °C 4.1 °C 992.8 hPa SE 9.3 km/h 19.3 km/h 79% 0 mm 9 W/m2
16:14 7.4 °C 4.1 °C 992.8 hPa SSE 7.2 km/h 17.7 km/h 79.3% 0 mm 5 W/m2
16:19 7.3 °C 4.2 °C 992.4 hPa SSE 8.7 km/h 16.1 km/h 80% 0 mm 0 W/m2
16:24 7.3 °C 4.1 °C 992.4 hPa SSE 9.3 km/h 16.1 km/h 80% 0 mm 0 W/m2
16:29 7.3 °C 4.1 °C 992.4 hPa SSE 9 km/h 19.3 km/h 80% 0 mm 0 W/m2
16:34 7.3 °C 4.2 °C 992.1 hPa SSE 7.9 km/h 17.7 km/h 80% 0 mm 0 W/m2
16:39 7.3 °C 4.2 °C 992.1 hPa SE 8.5 km/h 17.7 km/h 80% 0 mm 0 W/m2
16:44 7.3 °C 4.2 °C 992.1 hPa SE 8 km/h 17.7 km/h 80% 0 mm 0 W/m2
16:49 7.4 °C 4.2 °C 991.8 hPa SE 10.3 km/h 19.3 km/h 80% 0 mm 0 W/m2
16:54 7.4 °C 4.1 °C 991.4 hPa SSE 8.5 km/h 17.7 km/h 79.6% 0 mm 0 W/m2
16:59 7.4 °C 4 °C 991.4 hPa SSE 8.4 km/h 20.9 km/h 79% 0 mm 0 W/m2
17:04 7.4 °C 4.1 °C 991.4 hPa SE 10.6 km/h 22.5 km/h 79% 0 mm 0 W/m2
17:09 7.4 °C 4 °C 991.1 hPa SSE 8.7 km/h 22.5 km/h 79% 0 mm 0 W/m2
17:14 7.4 °C 4 °C 991.1 hPa SE 8.4 km/h 16.1 km/h 79% 0 mm 0 W/m2
17:19 7.4 °C 4.2 °C 991.1 hPa SE 9.2 km/h 19.3 km/h 80% 0 mm 0 W/m2
17:24 7.3 °C 4.1 °C 990.7 hPa SE 9.7 km/h 17.7 km/h 80% 0 mm 0 W/m2
17:29 7.3 °C 4.2 °C 990.7 hPa SE 10.5 km/h 19.3 km/h 80.7% 0 mm 0 W/m2
17:34 7.2 °C 4.3 °C 990.7 hPa SE 8.7 km/h 25.7 km/h 81.6% 0 mm 0 W/m2
17:39 7.2 °C 4.3 °C 990.7 hPa SE 9.7 km/h 25.7 km/h 82.1% 0.25 mm 0 W/m2
17:44 7.1 °C 4.3 °C 990.7 hPa SE 9.7 km/h 19.3 km/h 83% 0.25 mm 0 W/m2
17:49 6.9 °C 4.3 °C 990.4 hPa SE 8.2 km/h 19.3 km/h 83.7% 0.51 mm 0 W/m2
17:54 6.8 °C 4.4 °C 990.1 hPa SE 9.5 km/h 17.7 km/h 84.5% 0.51 mm 0 W/m2
17:59 6.8 °C 4.4 °C 990.1 hPa SE 9.3 km/h 27.4 km/h 85% 0.51 mm 0 W/m2
18:04 6.7 °C 4.5 °C 989.7 hPa ESE 11.1 km/h 27.4 km/h 85.9% 0.51 mm 0 W/m2
18:09 6.7 °C 4.5 °C 989.7 hPa ESE 11.3 km/h 22.5 km/h 86% 0.51 mm 0 W/m2
18:14 6.7 °C 4.6 °C 989.4 hPa SE 9 km/h 24.1 km/h 86.5% 0.51 mm 0 W/m2
18:19 6.7 °C 4.7 °C 989.4 hPa SE 10.9 km/h 24.1 km/h 87% 0.51 mm 0 W/m2
18:24 6.7 °C 4.7 °C 989.1 hPa SE 12.6 km/h 29 km/h 87.1% 0.51 mm 0 W/m2
18:29 6.7 °C 4.8 °C 989.1 hPa ESE 12.4 km/h 29 km/h 88% 0.51 mm 0 W/m2
18:34 6.6 °C 4.8 °C 988.7 hPa SE 10.9 km/h 27.4 km/h 88% 0.51 mm 0 W/m2
18:39 6.6 °C 4.8 °C 988.7 hPa SE 9.3 km/h 20.9 km/h 88% 0.51 mm 0 W/m2
18:44 6.6 °C 4.8 °C 988.4 hPa ESE 10.5 km/h 24.1 km/h 88% 0.51 mm 0 W/m2
18:49 6.6 °C 4.9 °C 988.4 hPa SE 10.3 km/h 30.6 km/h 88.8% 0.51 mm 0 W/m2
18:54 6.6 °C 4.9 °C 988 hPa SE 11.7 km/h 30.6 km/h 89% 0.76 mm 0 W/m2
18:57 6.5 °C 4.8 °C 988 hPa SE 11.9 km/h 27.4 km/h 89% 0.76 mm 0 W/m2
19:04 6.5 °C 4.8 °C 988 hPa SE 11.3 km/h 22.5 km/h 89% 1.02 mm 0 W/m2
19:09 6.5 °C 4.9 °C 987.7 hPa SE 12.6 km/h 27.4 km/h 89.8% 1.27 mm 0 W/m2
19:14 6.5 °C 5 °C 987.7 hPa SE 10.8 km/h 27.4 km/h 90% 1.52 mm 0 W/m2
19:19 6.4 °C 4.9 °C 987.7 hPa SSE 9.3 km/h 24.1 km/h 90% 2.03 mm 0 W/m2
19:24 6.4 °C 4.9 °C 988 hPa South 9.8 km/h 22.5 km/h 90.1% 2.54 mm 0 W/m2
19:29 6 °C 4.5 °C 988 hPa South 11.6 km/h 22.5 km/h 90.3% 3.3 mm 0 W/m2
19:34 5.8 °C 4.4 °C 988 hPa SSE 12.6 km/h 32.2 km/h 91% 4.06 mm 0 W/m2
19:39 5.3 °C 3.8 °C 988 hPa South 18.2 km/h 33.8 km/h 90% 4.32 mm 0 W/m2
19:44 5.2 °C 3.7 °C 988.4 hPa SSW 10.8 km/h 27.4 km/h 90% 4.57 mm 0 W/m2
19:49 4.8 °C 3.3 °C 988 hPa South 8.2 km/h 22.5 km/h 90% 4.83 mm 0 W/m2
19:54 4.7 °C 3.2 °C 988 hPa SSE 5.6 km/h 16.1 km/h 90% 4.57 mm 0 W/m2
19:59 4.8 °C 3.3 °C 988 hPa SSE 4.3 km/h 11.3 km/h 90% 4.32 mm 0 W/m2
20:04 4.8 °C 3.3 °C 987.7 hPa SSE 3.2 km/h 8 km/h 90% 4.32 mm 0 W/m2
20:09 4.8 °C 3.3 °C 987.7 hPa SSE 3.5 km/h 9.7 km/h 90% 4.32 mm 0 W/m2
20:14 4.8 °C 3.3 °C 987.7 hPa SSE 3.5 km/h 9.7 km/h 90% 4.32 mm 0 W/m2
20:19 4.8 °C 3.3 °C 987.7 hPa SSE 2.9 km/h 9.7 km/h 90% 3.81 mm 0 W/m2
20:24 4.8 °C 3.3 °C 987.7 hPa SSE 4.5 km/h 9.7 km/h 90% 3.3 mm 0 W/m2
20:29 4.8 °C 3.3 °C 987.7 hPa SSE 1.3 km/h 6.4 km/h 90% 2.79 mm 0 W/m2
20:34 4.8 °C 3.5 °C 987.7 hPa SSW 4.7 km/h 11.3 km/h 90.9% 2.03 mm 0 W/m2
20:39 4.9 °C 3.6 °C 988 hPa SSW 2.3 km/h 11.3 km/h 91% 1.52 mm 0 W/m2
20:44 4.9 °C 3.6 °C 987.7 hPa SW 3.9 km/h 12.9 km/h 91% 1.02 mm 0 W/m2
20:49 4.8 °C 3.4 °C 988 hPa SW 5.8 km/h 12.9 km/h 91% 0.76 mm 0 W/m2
20:54 4.7 °C 3.4 °C 988 hPa WSW 3.2 km/h 8 km/h 91% 0.51 mm 0 W/m2
20:59 4.6 °C 3.3 °C 988 hPa WSW 4.8 km/h 8 km/h 91% 0.51 mm 0 W/m2
21:04 4.6 °C 3.3 °C 988 hPa WSW 3.9 km/h 8 km/h 91% 0.25 mm 0 W/m2
21:09 4.6 °C 3.1 °C 988 hPa WSW 2.3 km/h 8 km/h 90.2% 0.25 mm 0 W/m2
21:14 4.5 °C 3 °C 988 hPa WSW 2.7 km/h 8 km/h 90% 0 mm 0 W/m2
21:19 4.4 °C 2.9 °C 988 hPa WSW 1.6 km/h 8 km/h 90% 0 mm 0 W/m2
21:24 4.4 °C 2.9 °C 988 hPa WSW 1.9 km/h 6.4 km/h 90% 0 mm 0 W/m2
21:29 4.4 °C 2.9 °C 988 hPa WSW 1.9 km/h 6.4 km/h 90% 0 mm 0 W/m2
21:34 4.4 °C 2.9 °C 988 hPa WSW 1.6 km/h 6.4 km/h 90% 0 mm 0 W/m2
21:39 4.4 °C 2.9 °C 988.4 hPa SW 4.5 km/h 9.7 km/h 90% 0 mm 0 W/m2
21:44 4.3 °C 2.8 °C 988.4 hPa SW 4.8 km/h 11.3 km/h 90% 0 mm 0 W/m2
21:49 4.3 °C 2.8 °C 988.4 hPa SW 6.1 km/h 12.9 km/h 90% 0 mm 0 W/m2
21:54 4.3 °C 2.8 °C 988.4 hPa SW 2.4 km/h 9.7 km/h 90% 0 mm 0 W/m2
21:59 4.3 °C 2.8 °C 988 hPa SW 5.8 km/h 11.3 km/h 90% 0 mm 0 W/m2
22:04 4.2 °C 2.7 °C 988 hPa SW 3.9 km/h 11.3 km/h 90% 0 mm 0 W/m2
22:09 4.3 °C 2.8 °C 988 hPa SW 2.7 km/h 6.4 km/h 90% 0 mm 0 W/m2
22:14 4.3 °C 2.8 °C 988 hPa SW 1.9 km/h 6.4 km/h 90% 0 mm 0 W/m2
22:19 4.3 °C 2.8 °C 988 hPa SW 3.4 km/h 11.3 km/h 90% 0 mm 0 W/m2
22:24 4.3 °C 2.8 °C 988 hPa SW 2.3 km/h 6.4 km/h 90% 0 mm 0 W/m2
22:29 4.3 °C 2.8 °C 988 hPa SW 3.9 km/h 8 km/h 90% 0 mm 0 W/m2
22:34 4.2 °C 2.7 °C 988 hPa SW 2.7 km/h 9.7 km/h 90% 0 mm 0 W/m2
22:39 4.3 °C 2.8 °C 988 hPa SW 0.3 km/h 4.8 km/h 90% 0 mm 0 W/m2
22:44 4.2 °C 2.7 °C 988 hPa SW 1.6 km/h 6.4 km/h 90% 0 mm 0 W/m2
22:49 4.3 °C 2.8 °C 988 hPa Calm   3.2 km/h 90% 0 mm 0 W/m2
22:54 4.4 °C 2.9 °C 988 hPa Calm   1.6 km/h 90% 0 mm 0 W/m2
22:59 4.4 °C 2.9 °C 988 hPa Calm   1.6 km/h 90% 0 mm 0 W/m2
23:04 4.4 °C 2.9 °C 988 hPa Calm     90.1% 0 mm 0 W/m2
23:09 4.5 °C 3.2 °C 988 hPa Calm     90.8% 0 mm 0 W/m2
23:14 4.6 °C 3.3 °C 988 hPa Calm   1.6 km/h 91% 0 mm 0 W/m2
23:19 4.5 °C 3.2 °C 988 hPa SW 0.2 km/h 1.6 km/h 91% 0 mm 0 W/m2
23:24 4.6 °C 3.3 °C 988 hPa Calm   1.6 km/h 91% 0 mm 0 W/m2
23:29 4.6 °C 3.3 °C 988 hPa Calm     91% 0 mm 0 W/m2
23:34 4.6 °C 3.3 °C 988 hPa Calm     91% 0 mm 0 W/m2
23:39 4.5 °C 3.2 °C 988 hPa Calm     91% 0 mm 0 W/m2
23:44 4.2 °C 2.9 °C 988 hPa Calm   1.6 km/h 91% 0 mm 0 W/m2
23:49 4 °C 2.7 °C 988 hPa Calm   1.6 km/h 91% 0 mm 0 W/m2
23:54 4.1 °C 2.8 °C 988 hPa Calm     91% 0 mm 0 W/m2
23:59 4.2 °C 2.8 °C 988 hPa Calm   1.6 km/h 91% 0 mm 0 W/m2
Bath Spa Weather
Compliments of Weather Underground - 2 mb